Time;durP1;ratioP1;P1;durP2;ratioP2;P2;SDS_P1;SDS_P2;PMS_P1;PMS_P2;Temp;Humidity;BMP_temperature;BMP_pressure;BME280_temperature;BME280_humidity;BME280_pressure;Samples;Min_cycle;Max_cycle;Signal;HPM_P1;HPM_P2
2023/07/06 00:01:40;;;;;;;;;;;;;;;33.79;29.17;98032.00;5096587;28;19916;-92
2023/07/06 00:04:06;;;;;;;;;;;;;;;33.76;29.34;98041.53;5106635;28;20383;-92
2023/07/06 00:06:32;;;;;;;;;;;;;;;33.55;29.65;98040.00;5096782;28;20375;-92
2023/07/06 00:08:59;;;;;;;;;;;;;;;33.53;29.33;98039.72;5085630;28;20291;-92
2023/07/06 00:11:35;;;;;;;;;;;;;;;33.61;29.03;98040.09;5095501;28;19920;-92
2023/07/06 00:14:02;;;;;;;;;;;;;;;33.68;29.24;98039.66;5092563;28;19924;-92
2023/07/06 00:16:28;;;;;;;;;;;;;;;33.20;29.49;98039.28;5093217;28;20391;-91
2023/07/06 00:18:58;;;;;;;;;;;;;;;33.13;29.68;98046.19;5096339;28;19924;-91
2023/07/06 00:21:25;;;;;;;;;;;;;;;33.24;29.30;98052.03;5095816;28;19924;-93
2023/07/06 00:23:52;;;;;;;;;;;;;;;33.33;29.37;98054.72;5094722;28;19953;-92
2023/07/06 00:26:20;;;;;;;;;;;;;;;33.37;28.92;98049.59;5090289;28;20069;-92
2023/07/06 00:28:48;;;;;;;;;;;;;;;33.51;29.43;98047.19;5084150;28;20388;-92
2023/07/06 00:31:31;;;;;;;;;;;;;;;33.57;29.33;98045.19;5074919;28;20410;-92
2023/07/06 00:34:03;;;;;;;;;;;;;;;33.58;29.27;98047.56;5083590;28;19928;-92
2023/07/06 00:36:31;;;;;;;;;;;;;;;33.55;28.90;98045.72;5085052;28;20470;-92
2023/07/06 00:38:57;;;;;;;;;;;;;;;33.57;29.02;98059.44;5081201;28;20396;-93
2023/07/06 00:41:23;;;;;;;;;;;;;;;33.62;28.96;98061.56;5087387;28;19920;-92
2023/07/06 00:43:54;;;;;;;;;;;;;;;33.60;28.87;98056.38;5085546;28;19969;-92
2023/07/06 00:46:21;;;;;;;;;;;;;;;33.54;28.74;98057.59;5075587;28;20039;-92
2023/07/06 00:48:49;;;;;;;;;;;;;;;33.52;29.10;98057.25;5081683;28;19921;-91
2023/07/06 00:51:27;;;;;;;;;;;;;;;33.04;29.19;98051.22;5077810;28;19921;-91
2023/07/06 00:54:01;;;;;;;;;;;;;;;32.50;30.19;98062.03;5080599;28;19931;-93
2023/07/06 00:56:29;;;;;;;;;;;;;;;32.77;29.50;98058.03;5088335;28;19942;-93
2023/07/06 00:59:02;;;;;;;;;;;;;;;33.05;29.01;98052.81;5081198;28;19920;-92
2023/07/06 01:01:29;;;;;;;;;;;;;;;33.20;29.13;98054.31;5078487;28;20029;-91
2023/07/06 01:03:56;;;;;;;;;;;;;;;33.31;29.00;98070.72;5071942;28;19928;-91
2023/07/06 01:06:28;;;;;;;;;;;;;;;33.39;29.23;98074.72;5080548;28;19920;-92
2023/07/06 01:08:54;;;;;;;;;;;;;;;33.44;29.12;98074.03;5082785;28;19982;-91
2023/07/06 01:11:21;;;;;;;;;;;;;;;33.47;28.73;98069.41;5084650;28;20009;-92
2023/07/06 01:13:48;;;;;;;;;;;;;;;33.46;28.72;98064.97;5089559;28;20009;-92
2023/07/06 01:16:25;;;;;;;;;;;;;;;33.24;29.04;98071.16;5077829;28;19920;-92
2023/07/06 01:18:51;;;;;;;;;;;;;;;33.15;29.42;98065.59;5078438;28;19971;-94
2023/07/06 01:21:43;;;;;;;;;;;;;;;32.95;29.92;98069.19;5082685;28;19920;-93
2023/07/06 01:24:20;;;;;;;;;;;;;;;32.94;29.63;98058.28;5055032;28;19968;-94
2023/07/06 01:26:46;;;;;;;;;;;;;;;33.07;29.27;98056.69;5094833;28;19971;-93
2023/07/06 01:29:38;;;;;;;;;;;;;;;32.99;29.15;98064.06;5094195;28;20006;-93
2023/07/06 01:32:13;;;;;;;;;;;;;;;33.02;29.76;98060.28;5070599;28;19920;-93
2023/07/06 01:34:47;;;;;;;;;;;;;;;33.12;29.37;98060.88;5086082;28;19927;-93
2023/07/06 01:37:16;;;;;;;;;;;;;;;32.84;29.87;98060.47;5094523;28;19966;-93
2023/07/06 01:39:42;;;;;;;;;;;;;;;32.81;29.82;98052.94;5094363;28;19912;-93
2023/07/06 01:42:08;;;;;;;;;;;;;;;32.80;29.70;98054.22;5079370;28;19995;-93
2023/07/06 01:44:35;;;;;;;;;;;;;;;32.80;29.09;98054.22;5093550;28;19970;-93
2023/07/06 01:47:02;;;;;;;;;;;;;;;32.82;29.56;98059.41;5094407;28;19916;-93
2023/07/06 01:49:28;;;;;;;;;;;;;;;32.69;30.09;98063.38;5093915;28;19924;-93
2023/07/06 01:52:09;;;;;;;;;;;;;;;32.52;29.97;98067.22;5066242;28;19916;-92
2023/07/06 01:54:58;;;;;;;;;;;;;;;32.58;30.17;98065.25;5094249;28;19916;-92
2023/07/06 01:57:28;;;;;;;;;;;;;;;32.57;29.49;98069.38;5086530;28;19973;-93
2023/07/06 01:59:56;;;;;;;;;;;;;;;32.65;29.67;98071.31;5075852;28;19969;-93
2023/07/06 02:02:22;;;;;;;;;;;;;;;32.72;29.72;98064.44;5094119;28;20387;-93
2023/07/06 02:04:51;;;;;;;;;;;;;;;32.64;29.33;98057.59;5094292;28;19968;-93
2023/07/06 02:07:18;;;;;;;;;;;;;;;32.57;30.11;98064.47;5085881;28;19931;-93
2023/07/06 02:09:45;;;;;;;;;;;;;;;32.29;30.54;98068.09;5094631;28;19923;-93
2023/07/06 02:12:12;;;;;;;;;;;;;;;32.29;30.72;98073.78;5093512;28;19927;-92
2023/07/06 02:14:40;;;;;;;;;;;;;;;32.29;30.52;98062.41;5084304;28;19920;-92
2023/07/06 02:17:07;;;;;;;;;;;;;;;32.40;30.12;98071.13;5093136;28;19927;-92
2023/07/06 02:19:35;;;;;;;;;;;;;;;32.40;30.17;98082.47;5092764;28;19920;-92
2023/07/06 02:22:04;;;;;;;;;;;;;;;32.59;29.87;98084.66;5073628;28;20015;-92
2023/07/06 02:24:31;;;;;;;;;;;;;;;32.71;29.39;98088.47;5085886;28;19922;-92
2023/07/06 02:26:57;;;;;;;;;;;;;;;32.66;29.74;98087.09;5093592;28;20368;-92
2023/07/06 02:29:23;;;;;;;;;;;;;;;32.46;30.06;98083.38;5092669;28;19936;-92
2023/07/06 02:31:49;;;;;;;;;;;;;;;32.49;30.21;98088.06;5071906;28;19920;-92
2023/07/06 02:34:24;;;;;;;;;;;;;;;32.23;30.32;98099.25;5078784;28;20318;-93
2023/07/06 02:36:56;;;;;;;;;;;;;;;32.13;30.43;98099.84;5092736;28;19964;-92
2023/07/06 02:39:25;;;;;;;;;;;;;;;31.95;31.14;98095.88;5071829;28;20388;-92
2023/07/06 02:41:53;;;;;;;;;;;;;;;31.90;31.30;98093.69;5092396;28;19920;-93
2023/07/06 02:44:22;;;;;;;;;;;;;;;31.79;31.46;98087.03;5093967;28;19970;-93
2023/07/06 02:46:48;;;;;;;;;;;;;;;31.83;31.42;98093.31;5093471;28;19924;-92
2023/07/06 02:49:14;;;;;;;;;;;;;;;31.96;31.25;98091.78;5093298;28;19916;-93
2023/07/06 02:51:40;;;;;;;;;;;;;;;32.00;31.07;98100.91;5093789;28;19923;-93
2023/07/06 02:54:07;;;;;;;;;;;;;;;32.07;30.45;98111.88;5093535;28;20291;-92
2023/07/06 02:56:33;;;;;;;;;;;;;;;32.35;30.49;98112.38;5093377;28;19920;-92
2023/07/06 02:58:59;;;;;;;;;;;;;;;32.33;30.59;98120.63;5089631;28;19976;-92
2023/07/06 03:01:25;;;;;;;;;;;;;;;32.43;30.01;98124.94;5084008;28;19920;-92
2023/07/06 03:03:51;;;;;;;;;;;;;;;32.48;29.83;98123.47;5080479;28;19921;-92
2023/07/06 03:06:18;;;;;;;;;;;;;;;32.31;30.16;98131.69;5072772;28;19970;-93
2023/07/06 03:08:45;;;;;;;;;;;;;;;32.11;30.53;98125.91;5081143;28;19920;-93
2023/07/06 03:11:11;;;;;;;;;;;;;;;31.86;30.92;98127.19;5074907;28;19974;-92
2023/07/06 03:13:37;;;;;;;;;;;;;;;31.84;31.12;98126.91;5077629;28;19946;-93
2023/07/06 03:16:04;;;;;;;;;;;;;;;31.71;31.14;98134.91;5083588;28;19931;-93
2023/07/06 03:18:31;;;;;;;;;;;;;;;31.73;30.88;98143.72;5078145;28;20007;-92
2023/07/06 03:20:57;;;;;;;;;;;;;;;31.92;30.85;98144.34;5082730;28;20081;-93
2023/07/06 03:23:23;;;;;;;;;;;;;;;32.00;30.66;98137.03;5075884;28;19920;-91
2023/07/06 03:25:51;;;;;;;;;;;;;;;31.96;30.22;98140.09;5077587;28;19920;-92
2023/07/06 03:28:18;;;;;;;;;;;;;;;31.59;31.05;98144.44;5079041;28;19931;-92
2023/07/06 03:30:44;;;;;;;;;;;;;;;31.62;31.37;98149.16;5082496;28;19943;-91
2023/07/06 03:33:11;;;;;;;;;;;;;;;31.80;31.14;98146.19;5082238;28;19921;-92
2023/07/06 03:35:41;;;;;;;;;;;;;;;31.99;30.70;98155.38;5069709;28;19920;-92
2023/07/06 03:38:07;;;;;;;;;;;;;;;31.87;30.93;98156.38;5077682;28;19975;-92
2023/07/06 03:40:33;;;;;;;;;;;;;;;31.95;30.62;98163.28;5078792;28;19923;-92
2023/07/06 03:43:01;;;;;;;;;;;;;;;31.96;31.35;98162.81;5073449;28;19920;-92
2023/07/06 03:45:30;;;;;;;;;;;;;;;32.51;30.67;98162.31;5068366;28;19963;-91
2023/07/06 03:47:56;;;;;;;;;;;;;;;32.74;31.08;98167.88;5076184;28;19920;-91
2023/07/06 03:50:22;;;;;;;;;;;;;;;33.04;30.01;98162.19;5092623;28;19924;-92
2023/07/06 03:52:48;;;;;;;;;;;;;;;33.49;29.72;98170.13;5084447;28;20437;-92
2023/07/06 03:55:19;;;;;;;;;;;;;;;33.93;29.00;98172.78;5071636;28;19928;-91
2023/07/06 03:57:46;;;;;;;;;;;;;;;33.99;28.79;98176.47;5077630;28;19928;-92
2023/07/06 04:00:22;;;;;;;;;;;;;;;34.22;28.52;98184.03;5084848;28;20364;-92
2023/07/06 04:02:49;;;;;;;;;;;;;;;34.60;28.81;98177.97;5089526;28;19962;-92
2023/07/06 04:05:17;;;;;;;;;;;;;;;34.98;28.63;98181.66;5082313;28;20414;-94
2023/07/06 04:07:44;;;;;;;;;;;;;;;35.27;28.13;98187.88;5088830;28;19959;-93
2023/07/06 04:10:11;;;;;;;;;;;;;;;34.93;27.47;98193.81;5088825;28;19962;-93
2023/07/06 04:12:37;;;;;;;;;;;;;;;34.17;27.56;98195.38;5076338;28;20303;-93
2023/07/06 04:15:06;;;;;;;;;;;;;;;33.48;28.98;98199.06;5085433;28;19960;-91
2023/07/06 04:17:36;;;;;;;;;;;;;;;33.66;29.50;98193.91;5081864;28;19982;-93
2023/07/06 04:20:14;;;;;;;;;;;;;;;34.10;29.45;98193.72;5076960;28;19927;-88
2023/07/06 04:22:40;;;;;;;;;;;;;;;34.24;28.87;98209.94;5078080;28;19920;-91
2023/07/06 04:25:07;;;;;;;;;;;;;;;34.26;28.79;98212.31;5079204;28;19993;-90
2023/07/06 04:27:33;;;;;;;;;;;;;;;34.62;28.68;98212.47;5082724;28;19924;-90
2023/07/06 04:29:59;;;;;;;;;;;;;;;34.98;27.40;98216.72;5072106;28;19966;-90
2023/07/06 04:32:31;;;;;;;;;;;;;;;35.21;28.24;98211.97;5084270;28;19920;-92
2023/07/06 04:34:57;;;;;;;;;;;;;;;35.42;27.93;98202.00;5089631;28;19924;-87
2023/07/06 04:37:23;;;;;;;;;;;;;;;35.83;27.03;98214.72;5080899;28;19965;-91
2023/07/06 04:39:49;;;;;;;;;;;;;;;35.82;27.46;98216.03;5095769;28;19962;-91
2023/07/06 04:42:15;;;;;;;;;;;;;;;35.74;27.29;98214.94;5085189;28;19920;-89
2023/07/06 04:44:43;;;;;;;;;;;;;;;36.00;27.07;98215.63;5080548;28;19924;-89
2023/07/06 04:47:09;;;;;;;;;;;;;;;35.37;26.57;98209.25;5084500;28;19943;-88
2023/07/06 04:49:35;;;;;;;;;;;;;;;34.88;27.46;98214.53;5086026;28;19917;-92
2023/07/06 04:52:02;;;;;;;;;;;;;;;34.51;27.33;98212.34;5113249;28;19916;-92
2023/07/06 04:54:30;;;;;;;;;;;;;;;34.63;28.13;98227.53;5116239;28;19962;-91
2023/07/06 04:56:56;;;;;;;;;;;;;;;34.80;27.87;98217.03;5116046;28;19916;-91
2023/07/06 04:59:22;;;;;;;;;;;;;;;35.12;27.48;98221.53;5112718;28;19959;-91
2023/07/06 05:01:49;;;;;;;;;;;;;;;35.48;27.75;98231.38;5079712;28;19943;-91
2023/07/06 05:04:17;;;;;;;;;;;;;;;35.58;27.44;98246.28;5112628;28;20340;-91
2023/07/06 05:06:43;;;;;;;;;;;;;;;35.64;28.23;98250.72;5111622;28;19916;-91
2023/07/06 05:09:09;;;;;;;;;;;;;;;35.84;26.73;98259.19;5095728;28;19927;-92
2023/07/06 05:11:35;;;;;;;;;;;;;;;35.84;26.23;98259.19;5082680;28;19920;-91
2023/07/06 05:14:01;;;;;;;;;;;;;;;35.91;26.26;98272.19;5094911;28;19963;-92
2023/07/06 05:16:27;;;;;;;;;;;;;;;35.86;26.47;98278.66;5095332;28;19916;-91
2023/07/06 05:18:53;;;;;;;;;;;;;;;35.95;25.85;98287.03;5087993;28;19925;-92
2023/07/06 05:21:19;;;;;;;;;;;;;;;35.82;26.16;98281.78;5090162;28;20405;-91
2023/07/06 05:23:45;;;;;;;;;;;;;;;35.78;26.24;98277.59;5076721;28;19916;-91
2023/07/06 05:26:12;;;;;;;;;;;;;;;35.38;26.34;98276.47;5095343;28;20348;-92
2023/07/06 05:28:38;;;;;;;;;;;;;;;34.93;26.59;98270.88;5083257;28;20376;-91
2023/07/06 05:31:04;;;;;;;;;;;;;;;34.63;26.99;98281.72;5074483;28;19973;-91
2023/07/06 05:33:32;;;;;;;;;;;;;;;34.40;26.92;98282.72;5074790;28;19912;-92
2023/07/06 05:35:58;;;;;;;;;;;;;;;34.16;27.30;98300.06;5092088;28;20268;-92
2023/07/06 05:38:25;;;;;;;;;;;;;;;34.35;27.54;98307.03;5087690;28;19966;-92
2023/07/06 05:40:51;;;;;;;;;;;;;;;34.06;27.95;98304.31;5105674;28;19922;-91
2023/07/06 05:43:19;;;;;;;;;;;;;;;34.06;28.11;98302.25;5101421;28;19927;-93
2023/07/06 05:45:46;;;;;;;;;;;;;;;33.97;27.74;98310.91;5098229;28;20283;-89
2023/07/06 05:48:12;;;;;;;;;;;;;;;33.63;28.08;98308.06;5077187;28;19932;-90
2023/07/06 05:50:39;;;;;;;;;;;;;;;33.52;28.79;98302.94;5082780;28;19916;-91
2023/07/06 05:53:06;;;;;;;;;;;;;;;33.56;28.52;98305.63;5094807;28;19942;-91
2023/07/06 05:55:32;;;;;;;;;;;;;;;33.67;28.09;98309.44;5094646;28;19916;-92
2023/07/06 05:57:58;;;;;;;;;;;;;;;33.73;28.20;98310.28;5094767;28;19987;-91
2023/07/06 06:00:24;;;;;;;;;;;;;;;33.77;28.20;98315.78;5094385;28;19916;-91
2023/07/06 06:02:51;;;;;;;;;;;;;;;33.61;28.26;98317.09;5076441;28;20283;-92
2023/07/06 06:05:17;;;;;;;;;;;;;;;33.50;28.19;98313.25;5094928;28;19920;-91
2023/07/06 06:07:45;;;;;;;;;;;;;;;33.41;28.52;98309.25;5094297;28;20001;-91
2023/07/06 06:10:12;;;;;;;;;;;;;;;33.65;28.12;98309.13;5093657;28;19977;-91
2023/07/06 06:12:38;;;;;;;;;;;;;;;33.78;28.05;98308.78;5094430;28;20384;-91
2023/07/06 06:15:07;;;;;;;;;;;;;;;33.63;27.45;98308.81;5094307;28;19924;-91
2023/07/06 06:17:34;;;;;;;;;;;;;;;33.73;28.29;98312.34;5075365;28;20376;-90
2023/07/06 06:20:00;;;;;;;;;;;;;;;33.61;27.95;98322.00;5101510;28;19920;-91
2023/07/06 06:22:26;;;;;;;;;;;;;;;33.42;28.10;98322.19;5088813;28;20429;-89
2023/07/06 06:24:53;;;;;;;;;;;;;;;33.28;28.44;98336.44;5114167;28;19916;-90
2023/07/06 06:27:19;;;;;;;;;;;;;;;33.51;28.09;98331.91;5106935;28;20298;-91
2023/07/06 06:29:46;;;;;;;;;;;;;;;33.76;27.48;98329.25;5082904;28;19921;-91
2023/07/06 06:32:12;;;;;;;;;;;;;;;33.73;27.62;98329.44;5078778;28;19916;-91
2023/07/06 06:34:39;;;;;;;;;;;;;;;33.81;27.86;98330.59;5093909;28;19916;-90
2023/07/06 06:37:06;;;;;;;;;;;;;;;33.99;27.69;98333.19;5096556;28;19952;-90
2023/07/06 06:39:33;;;;;;;;;;;;;;;33.78;27.39;98338.06;5111810;28;19954;-89
2023/07/06 06:42:00;;;;;;;;;;;;;;;33.61;27.60;98342.72;5114381;28;19920;-90
2023/07/06 06:44:28;;;;;;;;;;;;;;;33.69;27.90;98343.09;5114214;28;19924;-90
2023/07/06 06:46:56;;;;;;;;;;;;;;;33.58;27.89;98349.41;5095159;28;19962;-91
2023/07/06 06:49:23;;;;;;;;;;;;;;;33.83;27.96;98350.81;5093906;28;19920;-90
2023/07/06 06:51:49;;;;;;;;;;;;;;;34.06;27.57;98349.91;5075363;28;19955;-91
2023/07/06 06:54:15;;;;;;;;;;;;;;;34.08;27.63;98342.44;5093620;28;19993;-90
2023/07/06 06:56:41;;;;;;;;;;;;;;;34.15;27.14;98344.06;5100816;28;19972;-90
2023/07/06 06:59:11;;;;;;;;;;;;;;;34.40;27.55;98351.94;5095969;28;19927;-90
2023/07/06 07:01:38;;;;;;;;;;;;;;;34.13;27.99;98343.78;5110088;28;19923;-90
2023/07/06 07:04:04;;;;;;;;;;;;;;;33.93;27.51;98346.59;5092368;28;19920;-89
2023/07/06 07:06:30;;;;;;;;;;;;;;;33.39;27.91;98348.03;5106495;28;19916;-89
2023/07/06 07:08:57;;;;;;;;;;;;;;;33.62;27.41;98350.00;5087647;28;19925;-90
2023/07/06 07:11:24;;;;;;;;;;;;;;;33.38;27.59;98350.06;5098224;28;20282;-89
2023/07/06 07:13:51;;;;;;;;;;;;;;;33.16;27.46;98349.69;5110772;28;19930;-90
2023/07/06 07:16:18;;;;;;;;;;;;;;;32.41;28.40;98349.19;5084478;28;19965;-89
2023/07/06 07:18:45;;;;;;;;;;;;;;;32.62;28.29;98353.00;5076500;28;20014;-90
2023/07/06 07:21:12;;;;;;;;;;;;;;;32.56;27.78;98355.72;5090135;28;20024;-90
2023/07/06 07:23:42;;;;;;;;;;;;;;;32.92;27.91;98366.03;5095882;28;20315;-90
2023/07/06 07:26:08;;;;;;;;;;;;;;;33.07;27.53;98368.94;5097824;28;19919;-90
2023/07/06 07:28:34;;;;;;;;;;;;;;;33.19;27.80;98377.16;5097253;28;19969;-90
2023/07/06 07:31:01;;;;;;;;;;;;;;;33.09;27.50;98372.84;5097399;28;20015;-90
2023/07/06 07:33:28;;;;;;;;;;;;;;;32.56;28.30;98372.00;5097499;28;19916;-89
2023/07/06 07:35:57;;;;;;;;;;;;;;;32.74;28.27;98372.66;5097375;28;19923;-90
2023/07/06 07:38:23;;;;;;;;;;;;;;;33.14;27.64;98377.84;5096007;28;19920;-90
2023/07/06 07:40:52;;;;;;;;;;;;;;;33.54;27.16;98380.13;5096929;28;20331;-90
2023/07/06 07:43:18;;;;;;;;;;;;;;;33.66;26.92;98383.94;5089286;28;19956;-89
2023/07/06 07:45:45;;;;;;;;;;;;;;;33.39;27.09;98373.66;5082843;28;20261;-90
2023/07/06 07:48:11;;;;;;;;;;;;;;;33.28;27.30;98373.47;5097201;28;19955;-91
2023/07/06 07:50:37;;;;;;;;;;;;;;;33.26;27.60;98379.63;5096959;28;19923;-91
2023/07/06 07:53:03;;;;;;;;;;;;;;;33.48;27.02;98384.13;5096827;28;20431;-91
2023/07/06 07:55:29;;;;;;;;;;;;;;;33.71;26.84;98388.97;5078605;28;19923;-91
2023/07/06 07:57:56;;;;;;;;;;;;;;;33.81;26.98;98393.28;5097045;28;19916;-91
2023/07/06 08:00:22;;;;;;;;;;;;;;;33.92;26.98;98384.91;5096797;28;19945;-90
2023/07/06 08:02:48;;;;;;;;;;;;;;;33.95;27.27;98390.41;5078822;28;20376;-90
2023/07/06 08:05:14;;;;;;;;;;;;;;;34.21;27.26;98393.41;5076476;28;19916;-91
2023/07/06 08:07:40;;;;;;;;;;;;;;;34.23;26.60;98390.84;5076560;28;19917;-90
2023/07/06 08:10:08;;;;;;;;;;;;;;;34.39;26.61;98390.28;5076575;28;19924;-90
2023/07/06 08:12:34;;;;;;;;;;;;;;;34.14;26.55;98393.84;5076561;28;19927;-91
2023/07/06 08:15:02;;;;;;;;;;;;;;;34.12;26.67;98385.00;5094478;28;19920;-91
2023/07/06 08:17:29;;;;;;;;;;;;;;;34.12;27.01;98385.00;5110091;28;20022;-91
2023/07/06 08:19:55;;;;;;;;;;;;;;;33.88;26.92;98395.72;5113674;28;19973;-90
2023/07/06 08:22:22;;;;;;;;;;;;;;;33.83;27.21;98387.88;5116605;28;19916;-91
2023/07/06 08:24:48;;;;;;;;;;;;;;;33.85;27.38;98391.78;5116438;28;19916;-90
2023/07/06 08:27:14;;;;;;;;;;;;;;;33.85;26.87;98393.84;5116975;28;19916;-91
2023/07/06 08:29:43;;;;;;;;;;;;;;;33.78;27.00;98389.34;5116209;28;20292;-90
2023/07/06 08:32:11;;;;;;;;;;;;;;;33.74;27.24;98390.84;5103330;28;20303;-91
2023/07/06 08:34:37;;;;;;;;;;;;;;;33.96;27.26;98383.41;5095826;28;19973;-90
2023/07/06 08:37:04;;;;;;;;;;;;;;;34.02;27.38;98383.50;5096341;28;19920;-90
2023/07/06 08:39:30;;;;;;;;;;;;;;;34.09;27.15;98380.28;5096065;28;20372;-90
2023/07/06 08:41:59;;;;;;;;;;;;;;;34.13;27.33;98378.00;5096218;28;19928;-90
2023/07/06 08:44:25;;;;;;;;;;;;;;;34.20;27.14;98383.28;5088981;28;19946;-91
2023/07/06 08:46:55;;;;;;;;;;;;;;;34.30;27.04;98392.50;5081467;28;20013;-90
2023/07/06 08:49:24;;;;;;;;;;;;;;;33.93;26.36;98386.47;5101168;28;19923;-90
2023/07/06 08:51:52;;;;;;;;;;;;;;;34.21;27.38;98389.78;5095774;28;19916;-90
2023/07/06 08:54:19;;;;;;;;;;;;;;;34.62;26.93;98397.09;5095679;28;20028;-90
2023/07/06 08:56:47;;;;;;;;;;;;;;;34.81;26.69;98406.94;5095782;28;19916;-90
2023/07/06 08:59:19;;;;;;;;;;;;;;;35.16;26.90;98398.28;5095383;28;19916;-89
2023/07/06 09:01:46;;;;;;;;;;;;;;;35.42;25.06;98399.06;5095708;28;19916;-90
2023/07/06 09:04:14;;;;;;;;;;;;;;;35.51;25.33;98404.63;5095552;28;19916;-91
2023/07/06 09:06:45;;;;;;;;;;;;;;;35.37;25.45;98402.66;5095008;28;19920;-90
2023/07/06 09:09:12;;;;;;;;;;;;;;;35.73;25.33;98409.78;5105439;28;20007;-90
2023/07/06 09:11:38;;;;;;;;;;;;;;;36.14;26.40;98402.56;5113778;28;19982;-89
2023/07/06 09:14:10;;;;;;;;;;;;;;;36.35;25.63;98391.78;5094099;28;19972;-88
2023/07/06 09:16:44;;;;;;;;;;;;;;;36.56;25.09;98402.59;5114369;28;19920;-90
2023/07/06 09:19:10;;;;;;;;;;;;;;;36.58;23.62;98411.44;5115272;28;19962;-90
2023/07/06 09:21:36;;;;;;;;;;;;;;;36.65;23.27;98415.91;5115857;28;19915;-89
2023/07/06 09:24:02;;;;;;;;;;;;;;;36.76;23.19;98415.94;5095354;28;19993;-89
2023/07/06 09:26:33;;;;;;;;;;;;;;;36.87;23.48;98418.09;5100033;28;19920;-89
2023/07/06 09:29:15;;;;;;;;;;;;;;;36.97;22.66;98414.50;5111388;28;19916;-89
2023/07/06 09:31:43;;;;;;;;;;;;;;;37.12;23.76;98409.34;5077488;28;19920;-89
2023/07/06 09:34:38;;;;;;;;;;;;;;;37.17;23.21;98417.19;5078906;28;20303;-89
2023/07/06 09:37:04;;;;;;;;;;;;;;;37.41;23.07;98407.34;5077140;28;19920;-89
2023/07/06 09:39:32;;;;;;;;;;;;;;;37.53;23.69;98406.06;5094734;28;19916;-88
2023/07/06 09:42:01;;;;;;;;;;;;;;;37.54;23.69;98407.63;5094795;28;19926;-88
2023/07/06 09:44:29;;;;;;;;;;;;;;;37.49;21.76;98405.53;5076068;28;20009;-89
2023/07/06 09:46:55;;;;;;;;;;;;;;;37.37;22.86;98405.53;5094466;28;19916;-88
2023/07/06 09:49:26;;;;;;;;;;;;;;;37.47;22.84;98405.28;5094272;28;19916;-89
2023/07/06 09:51:58;;;;;;;;;;;;;;;37.87;22.60;98397.00;5085730;28;19927;-89
2023/07/06 09:54:40;;;;;;;;;;;;;;;38.26;21.44;98387.53;5074384;28;19924;-88
2023/07/06 09:57:15;;;;;;;;;;;;;;;38.23;22.02;98392.22;5089442;28;19931;-89
2023/07/06 09:59:45;;;;;;;;;;;;;;;38.38;21.15;98398.50;5104623;28;20002;-89
2023/07/06 10:02:11;;;;;;;;;;;;;;;38.24;20.18;98393.81;5114407;28;19969;-89
2023/07/06 10:04:40;;;;;;;;;;;;;;;37.96;20.76;98393.06;5114672;28;19920;-88
2023/07/06 10:07:06;;;;;;;;;;;;;;;37.56;20.87;98393.56;5102031;28;19966;-89
2023/07/06 10:09:35;;;;;;;;;;;;;;;37.19;22.51;98408.84;5076882;28;19926;-89
2023/07/06 10:12:08;;;;;;;;;;;;;;;37.29;21.74;98397.94;5078307;28;19919;-88
2023/07/06 10:14:38;;;;;;;;;;;;;;;37.41;21.33;98404.50;5089969;28;19920;-88
2023/07/06 10:17:18;;;;;;;;;;;;;;;37.68;21.40;98401.66;5093481;28;19916;-88
2023/07/06 10:19:54;;;;;;;;;;;;;;;37.83;20.04;98399.31;5089280;28;20026;-89
2023/07/06 10:22:23;;;;;;;;;;;;;;;37.79;19.94;98404.50;5082379;28;19916;-89
2023/07/06 10:24:54;;;;;;;;;;;;;;;37.79;20.43;98406.59;5075740;28;19946;-88
2023/07/06 10:27:27;;;;;;;;;;;;;;;37.57;20.28;98406.59;5093889;28;20268;-89
2023/07/06 10:30:00;;;;;;;;;;;;;;;37.39;19.99;98405.78;5093792;28;19917;-89
2023/07/06 10:32:28;;;;;;;;;;;;;;;37.36;20.77;98406.81;5093919;28;19916;-88
2023/07/06 10:35:00;;;;;;;;;;;;;;;37.34;19.98;98412.25;5111565;28;20014;-89
2023/07/06 10:37:27;;;;;;;;;;;;;;;37.19;19.63;98413.78;5094126;28;19923;-89
2023/07/06 10:39:54;;;;;;;;;;;;;;;37.18;20.73;98415.84;5078830;28;19971;-89
2023/07/06 10:42:22;;;;;;;;;;;;;;;37.50;20.43;98412.84;5093890;28;19920;-88
2023/07/06 10:44:52;;;;;;;;;;;;;;;37.55;20.61;98412.06;5059713;28;20281;-89
2023/07/06 10:47:33;;;;;;;;;;;;;;;37.48;19.98;98409.72;5078730;28;19928;-90
2023/07/06 10:50:05;;;;;;;;;;;;;;;37.43;20.73;98417.00;5070219;28;20393;-88
2023/07/06 10:52:32;;;;;;;;;;;;;;;37.52;20.57;98405.28;5114389;28;19916;-88
2023/07/06 10:54:58;;;;;;;;;;;;;;;37.65;20.51;98404.75;5113962;28;19922;-88
2023/07/06 10:57:32;;;;;;;;;;;;;;;37.68;20.55;98407.38;5098851;28;19920;-89
2023/07/06 11:00:05;;;;;;;;;;;;;;;37.58;20.43;98405.28;5099888;28;19916;-89
2023/07/06 11:02:40;;;;;;;;;;;;;;;37.59;20.52;98410.50;5107688;28;19924;-89
2023/07/06 11:05:24;;;;;;;;;;;;;;;37.34;20.04;98411.50;5105211;28;19973;-89
2023/07/06 11:07:52;;;;;;;;;;;;;;;36.99;20.37;98423.38;5105931;28;19920;-88
2023/07/06 11:10:28;;;;;;;;;;;;;;;36.86;21.21;98422.22;5097770;28;19965;-89
2023/07/06 11:13:01;;;;;;;;;;;;;;;37.05;21.25;98427.03;5098061;28;20371;-88
2023/07/06 11:15:39;;;;;;;;;;;;;;;37.30;20.84;98425.25;5096598;28;19950;-88
2023/07/06 11:18:05;;;;;;;;;;;;;;;37.22;20.94;98427.09;5090236;28;20279;-88
2023/07/06 11:20:31;;;;;;;;;;;;;;;37.30;21.47;98425.25;5117935;28;19922;-89
2023/07/06 11:23:02;;;;;;;;;;;;;;;37.24;20.30;98424.47;5097774;28;20411;-88
2023/07/06 11:25:29;;;;;;;;;;;;;;;37.12;20.45;98423.66;5090460;28;19924;-90
2023/07/06 11:27:59;;;;;;;;;;;;;;;36.69;21.12;98425.00;5090715;28;19920;-87
2023/07/06 11:30:31;;;;;;;;;;;;;;;36.42;21.99;98422.75;5114269;28;19960;-89
2023/07/06 11:33:10;;;;;;;;;;;;;;;36.68;20.81;98429.97;5077740;28;19924;-87
2023/07/06 11:35:49;;;;;;;;;;;;;;;37.19;20.86;98431.75;5077188;28;19916;-89
2023/07/06 11:38:30;;;;;;;;;;;;;;;36.55;20.21;98429.63;5086085;28;19917;-86
2023/07/06 11:41:05;;;;;;;;;;;;;;;37.11;21.20;98441.38;5088448;28;19960;-87
2023/07/06 11:43:31;;;;;;;;;;;;;;;37.13;20.24;98438.78;5113889;28;19970;-88
2023/07/06 11:46:05;;;;;;;;;;;;;;;37.15;21.35;98436.97;5117156;28;19927;-88
2023/07/06 11:48:32;;;;;;;;;;;;;;;36.93;20.45;98434.00;5117304;28;19985;-87
2023/07/06 11:50:59;;;;;;;;;;;;;;;36.67;20.48;98433.34;5117317;28;19923;-88
2023/07/06 11:53:54;;;;;;;;;;;;;;;36.68;21.15;98438.56;5110449;28;19927;-87
2023/07/06 11:56:50;;;;;;;;;;;;;;;36.26;21.03;98438.53;5099237;28;19996;-87
2023/07/06 11:59:38;;;;;;;;;;;;;;;36.43;21.38;98442.28;5092978;28;20324;-88
2023/07/06 12:02:30;;;;;;;;;;;;;;;36.35;21.53;98440.41;5076599;28;20471;-88
2023/07/06 12:04:56;;;;;;;;;;;;;;;36.22;21.75;98445.78;5075913;28;19960;-88
2023/07/06 12:07:27;;;;;;;;;;;;;;;36.16;21.50;98440.03;5076079;28;20477;-88
2023/07/06 12:09:53;;;;;;;;;;;;;;;36.23;21.50;98436.69;5075939;28;19916;-88
2023/07/06 12:12:23;;;;;;;;;;;;;;;36.48;21.76;98440.78;5090782;28;19989;-88
2023/07/06 12:14:51;;;;;;;;;;;;;;;35.83;22.09;98437.66;5094448;28;19923;-89
2023/07/06 12:17:18;;;;;;;;;;;;;;;35.90;22.21;98439.25;5093024;28;20302;-88
2023/07/06 12:19:44;;;;;;;;;;;;;;;35.68;22.50;98431.31;5105816;28;19920;-89
2023/07/06 12:22:17;;;;;;;;;;;;;;;35.84;22.87;98442.09;5094920;28;19920;-91
2023/07/06 12:24:43;;;;;;;;;;;;;;;35.39;22.55;98434.34;5072761;28;19920;-89
2023/07/06 12:27:13;;;;;;;;;;;;;;;35.51;22.62;98441.78;5087557;28;20347;-91
2023/07/06 12:29:39;;;;;;;;;;;;;;;35.92;22.71;98437.47;5107582;28;20018;-89
2023/07/06 12:32:13;;;;;;;;;;;;;;;36.32;22.62;98436.47;5095687;28;20337;-90
2023/07/06 12:34:40;;;;;;;;;;;;;;;36.58;23.10;98437.19;5095132;28;19920;-85
2023/07/06 12:37:17;;;;;;;;;;;;;;;36.78;23.40;98439.13;5095523;28;19920;-87
2023/07/06 12:39:44;;;;;;;;;;;;;;;36.88;21.91;98422.50;5086005;28;19921;-86
2023/07/06 12:42:11;;;;;;;;;;;;;;;36.83;21.39;98420.41;5090384;28;19920;-86
2023/07/06 12:44:39;;;;;;;;;;;;;;;36.66;22.30;98417.47;5095070;28;19924;-87
2023/07/06 12:47:21;;;;;;;;;;;;;;;36.39;22.43;98415.19;5094769;28;19920;-87
2023/07/06 12:49:50;;;;;;;;;;;;;;;36.30;22.67;98424.78;5094838;28;19927;-87
2023/07/06 12:52:17;;;;;;;;;;;;;;;36.00;23.25;98432.09;5094868;28;20016;-86
2023/07/06 12:54:49;;;;;;;;;;;;;;;36.03;23.46;98437.59;5095390;28;19916;-86
2023/07/06 12:57:22;;;;;;;;;;;;;;;36.32;24.51;98424.25;5094399;28;19924;-86